createdAt,value
2023-02-24T00:00:33.789Z,11.87
2023-02-24T00:03:11.261Z,12.07
2023-02-24T00:05:44.419Z,13.60
2023-02-24T00:08:14.263Z,13.77
2023-02-24T00:10:42.659Z,13.37
2023-02-24T00:13:12.310Z,13.23
2023-02-24T00:15:41.022Z,11.87
2023-02-24T00:18:10.538Z,14.47
2023-02-24T00:20:38.978Z,14.53
2023-02-24T00:23:09.801Z,14.17
2023-02-24T00:25:39.530Z,15.00
2023-02-24T00:28:08.897Z,14.90
2023-02-24T00:30:37.244Z,16.70
2023-02-24T00:33:06.722Z,14.43
2023-02-24T00:35:35.730Z,15.00
2023-02-24T00:38:04.187Z,15.00
2023-02-24T00:40:32.598Z,12.87
2023-02-24T00:43:02.667Z,14.33
2023-02-24T00:45:33.964Z,16.47
2023-02-24T00:48:04.726Z,13.67
2023-02-24T00:50:33.198Z,15.10
2023-02-24T00:53:01.565Z,14.73
2023-02-24T00:55:36.517Z,12.60
2023-02-24T00:58:07.459Z,15.57
2023-02-24T01:00:37.619Z,13.80
2023-02-24T01:03:07.063Z,14.40
2023-02-24T01:05:37.729Z,12.13
2023-02-24T01:08:06.214Z,11.53
2023-02-24T01:10:35.549Z,12.83
2023-02-24T01:13:02.955Z,16.40
2023-02-24T01:15:32.748Z,14.63
2023-02-24T01:18:01.121Z,15.73
2023-02-24T01:20:30.615Z,16.67
2023-02-24T01:22:59.137Z,14.90
2023-02-24T01:25:31.407Z,16.93
2023-02-24T01:27:59.853Z,13.60
2023-02-24T01:30:29.055Z,14.10
2023-02-24T01:33:01.869Z,14.47
2023-02-24T01:35:34.872Z,15.13
2023-02-24T01:38:05.289Z,15.70
2023-02-24T01:40:33.768Z,15.03
2023-02-24T01:43:02.161Z,14.90
2023-02-24T01:45:35.479Z,13.83
2023-02-24T01:48:07.658Z,13.67
2023-02-24T01:50:36.789Z,15.17
2023-02-24T01:53:07.293Z,15.87
2023-02-24T01:55:38.086Z,15.10
2023-02-24T01:58:08.483Z,13.00
2023-02-24T02:00:45.323Z,14.10
2023-02-24T02:03:25.248Z,14.80
2023-02-24T02:05:54.180Z,14.30
2023-02-24T02:08:24.856Z,16.77
2023-02-24T02:10:58.877Z,15.07
2023-02-24T02:13:28.516Z,14.00
2023-02-24T02:16:04.110Z,16.13
2023-02-24T02:18:44.114Z,15.53
2023-02-24T02:21:25.635Z,15.07
2023-02-24T02:24:00.923Z,16.50
2023-02-24T02:26:36.545Z,15.27
2023-02-24T02:29:18.401Z,16.60
2023-02-24T02:31:56.274Z,16.40
2023-02-24T02:34:31.009Z,15.00
2023-02-24T02:37:03.041Z,15.90
2023-02-24T02:39:37.152Z,16.37
2023-02-24T02:42:14.338Z,14.00
2023-02-24T02:44:47.984Z,13.90
2023-02-24T02:47:23.124Z,14.87
2023-02-24T02:49:54.775Z,15.57
2023-02-24T02:52:25.082Z,15.37
2023-02-24T02:54:56.592Z,13.07
2023-02-24T02:57:27.083Z,14.10
2023-02-24T02:59:58.271Z,13.40
2023-02-24T03:02:29.633Z,15.80
2023-02-24T03:05:02.044Z,13.73
2023-02-24T03:07:35.121Z,15.77
2023-02-24T03:10:10.786Z,14.87
2023-02-24T03:12:42.029Z,14.03
2023-02-24T03:15:12.291Z,13.67
2023-02-24T03:17:45.406Z,12.70
2023-02-24T03:20:18.797Z,11.90
2023-02-24T03:22:50.533Z,12.57
2023-02-24T03:25:24.148Z,14.10
2023-02-24T03:27:55.654Z,11.50
2023-02-24T03:30:28.520Z,11.27
2023-02-24T03:32:58.571Z,12.47
2023-02-24T03:35:34.408Z,13.80
2023-02-24T03:38:04.234Z,11.37
2023-02-24T03:40:35.911Z,12.87
2023-02-24T03:43:07.949Z,12.47
2023-02-24T03:45:39.094Z,11.10
2023-02-24T03:48:08.638Z,10.80
2023-02-24T03:50:39.901Z,12.10
2023-02-24T03:53:32.031Z,11.77
2023-02-24T03:56:05.736Z,10.73
2023-02-24T03:58:50.034Z,11.10
2023-02-24T04:01:25.443Z,10.33
2023-02-24T04:03:58.053Z,11.43
2023-02-24T04:06:38.568Z,11.57
2023-02-24T04:09:12.096Z,10.70
2023-02-24T04:11:55.436Z,10.73
2023-02-24T04:14:26.158Z,11.07
2023-02-24T04:17:01.176Z,11.73
2023-02-24T04:19:31.615Z,13.80
2023-02-24T04:22:03.927Z,10.63
2023-02-24T04:24:34.280Z,11.40
2023-02-24T04:27:06.397Z,11.93
2023-02-24T04:29:40.411Z,12.00
2023-02-24T04:32:12.118Z,10.40
2023-02-24T04:34:41.187Z,12.83
2023-02-24T04:37:14.536Z,13.13
2023-02-24T04:39:43.063Z,12.70
2023-02-24T04:42:22.396Z,12.57
2023-02-24T04:44:50.756Z,12.87
2023-02-24T04:47:19.175Z,12.00
2023-02-24T04:49:47.599Z,13.07
2023-02-24T04:52:17.759Z,12.70
2023-02-24T04:54:46.172Z,11.23
2023-02-24T04:57:14.598Z,12.50
2023-02-24T04:59:43.072Z,13.17
2023-02-24T05:02:13.328Z,13.20
2023-02-24T05:04:41.839Z,13.00
2023-02-24T05:07:12.780Z,12.23
2023-02-24T05:09:42.594Z,12.23
2023-02-24T05:12:10.993Z,15.17
2023-02-24T05:14:39.682Z,12.60
2023-02-24T05:17:08.155Z,13.03
2023-02-24T05:19:54.321Z,12.93
2023-02-24T05:22:22.988Z,11.33
2023-02-24T05:24:52.900Z,11.13
2023-02-24T05:27:22.335Z,12.37
2023-02-24T05:29:50.723Z,12.00
2023-02-24T05:32:19.233Z,12.93
2023-02-24T05:34:47.992Z,12.90
2023-02-24T05:37:16.766Z,13.40
2023-02-24T05:39:45.231Z,13.30
2023-02-24T05:42:17.089Z,15.07
2023-02-24T05:44:46.344Z,13.80
2023-02-24T05:47:17.451Z,13.13
2023-02-24T05:49:48.060Z,12.73
2023-02-24T05:52:16.477Z,14.70
2023-02-24T05:54:48.219Z,14.13
2023-02-24T05:57:21.459Z,14.33
2023-02-24T05:59:51.228Z,14.80
2023-02-24T06:02:27.481Z,13.00
2023-02-24T06:04:56.996Z,12.57
2023-02-24T06:07:26.642Z,11.57
2023-02-24T06:09:57.117Z,11.50
2023-02-24T06:12:28.382Z,16.07
2023-02-24T06:14:58.133Z,17.17
2023-02-24T06:17:26.597Z,13.97
2023-02-24T06:19:55.400Z,14.50
2023-02-24T06:22:25.192Z,16.90
2023-02-24T06:24:54.876Z,14.87
2023-02-24T06:27:25.062Z,13.40
2023-02-24T06:29:56.731Z,14.97
2023-02-24T06:32:27.170Z,14.67
2023-02-24T06:34:57.448Z,14.83
2023-02-24T06:37:26.149Z,13.73
2023-02-24T06:39:54.725Z,13.87
2023-02-24T06:42:23.269Z,12.47
2023-02-24T06:44:51.823Z,13.10
2023-02-24T06:47:22.760Z,14.10
2023-02-24T06:49:51.562Z,13.60
2023-02-24T06:52:19.984Z,13.37
2023-02-24T06:54:52.538Z,13.73
2023-02-24T06:57:21.018Z,15.00
2023-02-24T06:59:50.866Z,14.00
2023-02-24T07:02:19.320Z,13.93
2023-02-24T07:04:49.253Z,13.53
2023-02-24T07:07:18.976Z,14.37
2023-02-24T07:09:47.513Z,15.10
2023-02-24T07:12:21.136Z,13.70
2023-02-24T07:14:50.891Z,14.97
2023-02-24T07:17:20.978Z,17.03
2023-02-24T07:19:51.012Z,15.67
2023-02-24T07:22:25.199Z,17.70
2023-02-24T07:25:00.545Z,15.33
2023-02-24T07:27:29.218Z,15.47
2023-02-24T07:29:59.218Z,17.10
2023-02-24T07:32:28.072Z,17.70
2023-02-24T07:34:59.578Z,20.40
2023-02-24T07:37:31.742Z,17.83
2023-02-24T07:40:00.361Z,21.10
2023-02-24T07:42:32.863Z,18.97
2023-02-24T07:45:01.600Z,23.03
2023-02-24T07:47:30.128Z,21.47
2023-02-24T07:50:00.434Z,20.20
2023-02-24T07:52:32.712Z,22.97
2023-02-24T07:55:01.145Z,23.77
2023-02-24T07:57:29.543Z,26.20
2023-02-24T07:59:59.069Z,22.00
2023-02-24T08:02:29.317Z,26.53
2023-02-24T08:04:57.741Z,23.93
2023-02-24T08:07:30.490Z,27.57
2023-02-24T08:10:14.069Z,25.17
2023-02-24T08:12:47.664Z,25.30
2023-02-24T08:15:24.428Z,25.00
2023-02-24T08:17:55.821Z,26.40
2023-02-24T08:20:29.750Z,26.07
2023-02-24T08:22:59.770Z,22.73
2023-02-24T08:25:35.949Z,22.73
2023-02-24T08:28:08.925Z,27.50
2023-02-24T08:30:45.291Z,26.50
2023-02-24T08:33:17.794Z,27.63
2023-02-24T08:35:46.272Z,23.50
2023-02-24T08:38:17.698Z,25.63
2023-02-24T08:40:51.518Z,21.87
2023-02-24T08:43:34.074Z,22.27
2023-02-24T08:46:05.770Z,26.07
2023-02-24T08:48:38.177Z,23.20
2023-02-24T08:51:08.749Z,25.93
2023-02-24T08:53:40.694Z,23.20
2023-02-24T08:56:13.124Z,26.63
2023-02-24T08:58:47.300Z,24.47
2023-02-24T09:01:24.356Z,23.87
2023-02-24T09:03:54.441Z,25.13
2023-02-24T09:06:25.532Z,21.50
2023-02-24T09:09:11.718Z,22.00
2023-02-24T09:11:44.071Z,21.90
2023-02-24T09:14:26.109Z,22.83
2023-02-24T09:17:06.129Z,21.10
2023-02-24T09:20:01.730Z,24.83
2023-02-24T09:22:40.982Z,22.67
2023-02-24T09:25:25.944Z,22.73
2023-02-24T09:28:08.114Z,21.57
2023-02-24T09:30:38.031Z,20.47
2023-02-24T09:33:21.221Z,19.77
2023-02-24T09:35:54.202Z,23.47
2023-02-24T09:38:46.115Z,22.20
2023-02-24T09:41:30.096Z,20.50
2023-02-24T09:44:03.813Z,22.17
2023-02-24T09:46:40.307Z,20.77
2023-02-24T09:49:14.512Z,21.60
2023-02-24T09:51:45.752Z,20.40
2023-02-24T09:54:16.669Z,20.47
2023-02-24T09:56:57.324Z,21.27
2023-02-24T09:59:34.724Z,20.67
2023-02-24T10:02:16.315Z,20.97
2023-02-24T10:05:07.283Z,23.30
2023-02-24T10:07:39.471Z,20.40
2023-02-24T10:10:28.120Z,21.87
2023-02-24T10:13:00.442Z,21.00
2023-02-24T10:15:47.655Z,21.63
2023-02-24T10:18:27.364Z,19.73
2023-02-24T10:20:58.225Z,20.87
2023-02-24T10:23:33.071Z,20.47
2023-02-24T10:26:07.719Z,19.27
2023-02-24T10:28:43.893Z,19.67
2023-02-24T10:31:25.299Z,20.03
2023-02-24T10:33:57.512Z,20.13
2023-02-24T10:36:35.404Z,20.60
2023-02-24T10:39:08.510Z,18.87
2023-02-24T10:41:45.808Z,17.43
2023-02-24T10:44:24.206Z,20.40
2023-02-24T10:47:11.585Z,20.27
2023-02-24T10:49:56.859Z,18.53
2023-02-24T10:53:10.957Z,17.70
2023-02-24T10:55:53.609Z,17.70
2023-02-24T10:58:39.225Z,16.23
2023-02-24T11:01:18.181Z,13.27
2023-02-24T11:04:01.341Z,12.80
2023-02-24T11:06:48.302Z,13.43
2023-02-24T11:09:32.314Z,12.40
2023-02-24T11:12:19.116Z,12.00
2023-02-24T11:15:09.627Z,13.13
2023-02-24T11:17:46.760Z,11.53
2023-02-24T11:20:21.385Z,11.27
2023-02-24T11:22:52.457Z,10.97
2023-02-24T11:25:24.246Z,11.67
2023-02-24T11:27:53.674Z,10.87
2023-02-24T11:30:25.699Z,10.53
2023-02-24T11:33:09.288Z,10.67
2023-02-24T11:35:40.764Z,10.60
2023-02-24T11:38:13.968Z,12.30
2023-02-24T11:40:45.073Z,10.60
2023-02-24T11:43:18.564Z,10.33
2023-02-24T11:45:49.393Z,11.07
2023-02-24T11:48:20.505Z,10.30
2023-02-24T11:50:51.085Z,9.90
2023-02-24T11:53:27.046Z,9.70
2023-02-24T11:55:59.256Z,11.27
2023-02-24T11:58:31.193Z,11.57
2023-02-24T12:01:04.909Z,11.10
2023-02-24T12:03:38.003Z,12.70
2023-02-24T12:06:12.680Z,11.37
2023-02-24T12:08:44.558Z,11.37
2023-02-24T12:11:16.399Z,10.47
2023-02-24T12:13:47.498Z,11.10
2023-02-24T12:16:21.092Z,11.77
2023-02-24T12:18:54.308Z,11.20
2023-02-24T12:21:25.354Z,10.93
2023-02-24T12:23:54.736Z,11.63
2023-02-24T12:26:25.562Z,12.10
2023-02-24T12:29:09.757Z,11.30
2023-02-24T12:31:42.321Z,11.43
2023-02-24T12:34:15.567Z,11.30
2023-02-24T12:37:00.647Z,12.20
2023-02-24T12:39:31.818Z,10.97
2023-02-24T12:42:06.369Z,11.30
2023-02-24T12:44:38.849Z,11.17
2023-02-24T12:47:10.981Z,13.03
2023-02-24T12:49:53.026Z,10.70
2023-02-24T12:52:26.121Z,12.20
2023-02-24T12:54:57.100Z,11.97
2023-02-24T12:57:29.348Z,11.17
2023-02-24T12:59:58.291Z,11.47
2023-02-24T13:02:32.264Z,12.17
2023-02-24T13:05:05.224Z,12.57
2023-02-24T13:07:43.874Z,11.67
2023-02-24T13:10:20.992Z,10.63
2023-02-24T13:12:53.146Z,12.97
2023-02-24T13:15:23.220Z,11.87
2023-02-24T13:17:52.873Z,12.20
2023-02-24T13:20:30.145Z,10.67
2023-02-24T13:23:00.096Z,12.03
2023-02-24T13:25:31.816Z,10.13
2023-02-24T13:28:02.317Z,11.03
2023-02-24T13:30:34.755Z,10.23
2023-02-24T13:33:05.497Z,10.47
2023-02-24T13:35:37.537Z,10.27
2023-02-24T13:38:11.437Z,9.13
2023-02-24T13:40:39.984Z,9.43
2023-02-24T13:43:24.041Z,9.73
2023-02-24T13:45:57.267Z,8.10
2023-02-24T13:48:35.570Z,10.10
2023-02-24T13:51:13.622Z,9.27
2023-02-24T13:53:54.066Z,9.33
2023-02-24T13:56:27.550Z,9.43
2023-02-24T13:59:19.856Z,9.93
2023-02-24T14:01:50.132Z,9.20
2023-02-24T14:04:20.383Z,9.40
2023-02-24T14:06:51.675Z,8.93
2023-02-24T14:09:24.111Z,9.93
2023-02-24T14:11:53.885Z,10.57
2023-02-24T14:14:22.532Z,9.73
2023-02-24T14:16:52.660Z,10.77
2023-02-24T14:19:21.276Z,10.30
2023-02-24T14:21:53.358Z,9.57
2023-02-24T14:24:22.097Z,9.90
2023-02-24T14:26:51.871Z,10.40
2023-02-24T14:29:21.531Z,10.23
2023-02-24T14:31:54.632Z,10.10
2023-02-24T14:34:24.679Z,9.83
2023-02-24T14:36:55.801Z,9.37
2023-02-24T14:39:24.915Z,9.70
2023-02-24T14:41:54.194Z,9.67
2023-02-24T14:44:25.617Z,9.87
2023-02-24T14:46:55.243Z,9.10
2023-02-24T14:49:25.551Z,9.43
2023-02-24T14:51:57.824Z,9.70
2023-02-24T14:54:33.608Z,9.83
2023-02-24T14:57:02.560Z,9.47
2023-02-24T14:59:33.232Z,9.00
2023-02-24T15:02:02.889Z,9.37
2023-02-24T15:04:37.205Z,10.17
2023-02-24T15:07:07.900Z,10.20
2023-02-24T15:09:37.414Z,9.07
2023-02-24T15:12:10.425Z,10.33
2023-02-24T15:14:38.949Z,9.37
2023-02-24T15:17:10.706Z,10.73
2023-02-24T15:19:44.310Z,10.70
2023-02-24T15:22:34.708Z,10.97
2023-02-24T15:25:15.361Z,11.17
2023-02-24T15:27:51.924Z,11.70
2023-02-24T15:30:27.824Z,10.20
2023-02-24T15:33:01.755Z,9.27
2023-02-24T15:35:30.507Z,9.30
2023-02-24T15:37:59.027Z,9.83
2023-02-24T15:40:29.619Z,10.17
2023-02-24T15:42:58.824Z,9.40
2023-02-24T15:45:30.227Z,9.20
2023-02-24T15:48:00.171Z,9.37
2023-02-24T15:50:32.431Z,9.07
2023-02-24T15:53:06.358Z,8.47
2023-02-24T15:55:36.496Z,10.23
2023-02-24T15:58:05.625Z,8.77
2023-02-24T16:00:34.100Z,8.63
2023-02-24T16:03:03.720Z,9.63
2023-02-24T16:05:32.379Z,8.47
2023-02-24T16:08:00.781Z,9.20
2023-02-24T16:10:30.623Z,9.00
2023-02-24T16:13:03.732Z,8.60
2023-02-24T16:15:32.768Z,8.60
2023-02-24T16:18:03.264Z,9.53
2023-02-24T16:20:33.595Z,9.10
2023-02-24T16:23:02.839Z,8.80
2023-02-24T16:25:32.276Z,8.80
2023-02-24T16:28:02.810Z,9.10
2023-02-24T16:30:32.187Z,8.63
2023-02-24T16:33:01.916Z,7.97
2023-02-24T16:35:30.477Z,9.00
2023-02-24T16:38:01.174Z,8.90
2023-02-24T16:40:31.931Z,9.90
2023-02-24T16:43:01.833Z,10.43
2023-02-24T16:45:31.233Z,10.00
2023-02-24T16:48:02.370Z,11.53
2023-02-24T16:50:33.395Z,11.07
2023-02-24T16:53:01.792Z,9.83
2023-02-24T16:55:30.419Z,10.17
2023-02-24T16:57:58.890Z,12.80
2023-02-24T17:00:29.155Z,11.87
2023-02-24T17:02:57.608Z,11.80
2023-02-24T17:05:26.493Z,12.47
2023-02-24T17:07:56.212Z,12.67
2023-02-24T17:10:25.423Z,13.03
2023-02-24T17:12:53.976Z,12.77
2023-02-24T17:15:23.403Z,13.47
2023-02-24T17:17:53.279Z,11.53
2023-02-24T17:20:22.627Z,13.67
2023-02-24T17:22:51.110Z,13.50
2023-02-24T17:25:20.686Z,12.67
2023-02-24T17:27:49.121Z,12.77
2023-02-24T17:30:18.683Z,11.57
2023-02-24T17:32:47.152Z,12.40
2023-02-24T17:35:17.133Z,12.80
2023-02-24T17:37:45.625Z,11.67
2023-02-24T17:40:14.790Z,11.33
2023-02-24T17:42:43.246Z,11.83
2023-02-24T17:45:15.465Z,12.17
2023-02-24T17:47:44.346Z,12.63
2023-02-24T17:50:14.551Z,11.23
2023-02-24T17:52:44.466Z,10.53
2023-02-24T17:55:13.683Z,11.67
2023-02-24T17:57:42.136Z,10.60
2023-02-24T18:00:12.504Z,10.87
2023-02-24T18:02:41.069Z,10.47
2023-02-24T18:05:10.150Z,10.80
2023-02-24T18:07:38.589Z,9.23
2023-02-24T18:10:09.687Z,10.67
2023-02-24T18:12:38.613Z,11.20
2023-02-24T18:15:09.192Z,9.53
2023-02-24T18:17:38.362Z,11.20
2023-02-24T18:20:07.445Z,10.93
2023-02-24T18:22:36.036Z,11.13
2023-02-24T18:25:05.212Z,11.00
2023-02-24T18:27:34.996Z,11.63
2023-02-24T18:30:03.504Z,13.03
2023-02-24T18:32:32.039Z,12.60
2023-02-24T18:35:00.602Z,14.20
2023-02-24T18:37:29.017Z,15.33
2023-02-24T18:39:57.398Z,14.93
2023-02-24T18:42:25.824Z,16.13
2023-02-24T18:44:55.612Z,13.63
2023-02-24T18:47:25.297Z,12.80
2023-02-24T18:49:53.691Z,11.57
2023-02-24T18:52:22.095Z,12.70
2023-02-24T18:54:50.574Z,12.30
2023-02-24T18:57:18.984Z,10.40
2023-02-24T18:59:50.508Z,10.20
2023-02-24T19:02:20.227Z,10.47
2023-02-24T19:04:48.712Z,10.77
2023-02-24T19:07:17.162Z,10.10
2023-02-24T19:09:45.530Z,9.70
2023-02-24T19:12:14.874Z,10.20
2023-02-24T19:14:43.283Z,10.43
2023-02-24T19:17:11.673Z,9.83
2023-02-24T19:19:43.464Z,10.50
2023-02-24T19:22:12.218Z,9.60
2023-02-24T19:24:40.684Z,9.70
2023-02-24T19:27:09.320Z,11.10
2023-02-24T19:29:37.829Z,10.37
2023-02-24T19:32:06.410Z,10.90
2023-02-24T19:34:34.957Z,11.40
2023-02-24T19:37:04.826Z,11.07
2023-02-24T19:39:33.262Z,11.93
2023-02-24T19:42:01.906Z,11.20
2023-02-24T19:44:30.304Z,10.43
2023-02-24T19:46:58.737Z,10.70
2023-02-24T19:49:27.665Z,11.93
2023-02-24T19:51:56.207Z,11.10
2023-02-24T19:54:26.692Z,12.23
2023-02-24T19:56:57.271Z,13.07
2023-02-24T19:59:25.958Z,12.20
2023-02-24T20:01:55.251Z,12.33
2023-02-24T20:04:24.431Z,11.13
2023-02-24T20:06:52.868Z,10.87
2023-02-24T20:09:22.254Z,10.97
2023-02-24T20:11:54.197Z,10.73
2023-02-24T20:14:22.630Z,11.13
2023-02-24T20:16:51.090Z,9.10
2023-02-24T20:19:19.530Z,6.70
2023-02-24T20:21:48.467Z,6.90
2023-02-24T20:24:18.077Z,6.30
2023-02-24T20:26:47.497Z,5.90
2023-02-24T20:29:17.611Z,5.93
2023-02-24T20:31:46.477Z,4.00
2023-02-24T20:34:16.650Z,4.83
2023-02-24T20:36:45.402Z,4.40
2023-02-24T20:39:13.846Z,4.20
2023-02-24T20:41:42.531Z,4.30
2023-02-24T20:44:11.182Z,3.83
2023-02-24T20:46:40.961Z,3.63
2023-02-24T20:49:11.287Z,3.67
2023-02-24T20:51:40.122Z,3.40
2023-02-24T20:54:09.239Z,3.60
2023-02-24T20:56:38.682Z,3.23
2023-02-24T20:59:09.116Z,3.37
2023-02-24T21:01:39.023Z,3.30
2023-02-24T21:04:09.091Z,3.80
2023-02-24T21:06:37.806Z,3.70
2023-02-24T21:09:06.672Z,3.83
2023-02-24T21:11:35.138Z,3.97
2023-02-24T21:14:04.273Z,4.30
2023-02-24T21:16:32.694Z,3.83
2023-02-24T21:19:01.197Z,3.67
2023-02-24T21:21:30.952Z,3.80
2023-02-24T21:23:59.371Z,4.33
2023-02-24T21:26:29.227Z,3.60
2023-02-24T21:28:59.336Z,3.63
2023-02-24T21:31:28.673Z,3.43
2023-02-24T21:33:57.489Z,3.73
2023-02-24T21:36:28.085Z,4.13
2023-02-24T21:38:57.954Z,4.27
2023-02-24T21:41:26.378Z,4.90
2023-02-24T21:43:55.844Z,5.47
2023-02-24T21:46:28.348Z,6.13
2023-02-24T21:49:00.120Z,5.60
2023-02-24T21:51:29.236Z,6.20
2023-02-24T21:54:00.793Z,6.30
2023-02-24T21:56:30.413Z,5.90
2023-02-24T21:59:00.122Z,6.13
2023-02-24T22:01:29.730Z,5.77
2023-02-24T22:03:58.882Z,5.63
2023-02-24T22:06:31.455Z,6.17
2023-02-24T22:09:02.122Z,5.80
2023-02-24T22:11:31.948Z,6.70
2023-02-24T22:14:00.482Z,7.63
2023-02-24T22:16:30.376Z,7.20
2023-02-24T22:18:58.958Z,7.63
2023-02-24T22:21:28.247Z,7.67
2023-02-24T22:23:59.513Z,8.03
2023-02-24T22:26:29.883Z,8.80
2023-02-24T22:28:58.595Z,8.70
2023-02-24T22:31:28.082Z,9.83
2023-02-24T22:33:56.703Z,9.73
2023-02-24T22:36:26.715Z,10.23
2023-02-24T22:38:56.167Z,10.63
2023-02-24T22:41:25.775Z,10.23
2023-02-24T22:43:55.637Z,11.60
2023-02-24T22:46:25.343Z,8.33
2023-02-24T22:48:54.093Z,7.97
2023-02-24T22:51:22.516Z,7.63
2023-02-24T22:53:51.484Z,9.10
2023-02-24T22:56:21.182Z,9.40
2023-02-24T22:58:49.966Z,9.70
2023-02-24T23:01:21.926Z,10.23
2023-02-24T23:03:50.750Z,8.90
2023-02-24T23:06:20.684Z,9.37
2023-02-24T23:08:50.387Z,9.93
2023-02-24T23:11:19.757Z,9.87
2023-02-24T23:13:48.960Z,9.63
2023-02-24T23:16:18.994Z,8.57
2023-02-24T23:18:50.824Z,8.87
2023-02-24T23:21:20.074Z,9.03
2023-02-24T23:23:48.613Z,10.27
2023-02-24T23:26:18.022Z,9.80
2023-02-24T23:28:46.662Z,9.67
2023-02-24T23:31:19.824Z,9.53
2023-02-24T23:33:50.541Z,10.93
2023-02-24T23:36:19.071Z,9.57
2023-02-24T23:38:47.504Z,9.83
2023-02-24T23:41:16.254Z,9.37
2023-02-24T23:43:45.094Z,9.00
2023-02-24T23:46:14.532Z,8.60
2023-02-24T23:48:43.289Z,9.20
2023-02-24T23:51:14.798Z,9.00
2023-02-24T23:53:43.959Z,9.80
2023-02-24T23:56:14.748Z,9.50
2023-02-24T23:58:43.483Z,7.80
